Lake Charles Regional Airport
KLCH : now visible

Airfield :











YOU CAN JOIN US ON...

 
LOGIN :

Register | Disclaimer

   EN    FR    IT 

 









Legend :    VFR   Marginal VFR   IFR   Intensive IFR   Very Intensive IFR
Visi :
Ceiling :
>= 8 km
>= 3000ft
5 to 8 km
1000 to 3000 ft
1500m to 5 km
500 to 1000 ft
800 to 1500m
200 to 500 ft
< 800m
< 200 ft
Symbols :   Thunderstorms  Fog  Heavy snow  Heavy precipitations  Wind > 20 kt






- Airport Elevation : 15 ft
- IATA code : LCH


KLCH - Lake Charles Regional

CURRENT METAR :
  • 190553Z 10009KT 10SM CLR 25/23 A2989 RMK AO2 SLP130 60003 T02500233 10261 20250 402940244 58001

EXPIRED METARs :
  • 190453Z 09011KT 10SM CLR 26/23 A2990 RMK AO2 SLP132 T02560233
  • 190353Z 09012KT 10SM CLR 25/24 A2990 RMK AO2 SLP131 T02500239
  • 190253Z 09010KT 8SM BKN110 25/24 A2990 RMK AO2 RAB17E51 SLP131 P0001 60003 T02500239 51005
  • 190153Z 09011KT 9SM CLR 25/23 A2989 RMK AO2 RAE39 SLP130 P0001 T02500233

TAF KLCH
Valid from the 19 at 06:00 until the 20 at 06:00 UTC


190520Z 1906/2006 08012G18KT P6SM VCSH OVC110
TEMPO 1906/1910 BKN015
FM191000 07015G22KT 6SM BR SCT012 OVC150
TEMPO 1910/1914 BKN012
FM191400 08018G26KT P6SM VCSH OVC030
FM191700 08022G30KT P6SM OVC020
FM200300 08022G30KT P6SM FEW018 SCT025 OVC040
KZHU FIR / North America



MET'MAP, your aeronautical weather chart ! - Copyright ORBIFLY December 2007 - Disclaimer

ORBIFLY MET'MAP TEAM :

Programming & Development : Alexandra Zaïnal
Original concept : Baudouin d'Aumeries
Technical & hardware support : Manuel Goepfert
Assistance : Marc-Olivier Méhu




SOURCES & CREDITS :

   NOAA       Earth
Advisory